createdAt,value
2023-01-17T00:13:56.712Z,59.60
2023-01-17T00:20:48.551Z,60.50
2023-01-17T00:23:40.211Z,60.90
2023-01-17T00:26:14.731Z,61.10
2023-01-17T00:28:43.407Z,61.30
2023-01-17T00:31:13.056Z,61.50
2023-01-17T00:36:10.073Z,61.90
2023-01-17T00:38:38.813Z,62.00
2023-01-17T01:06:16.053Z,63.00
2023-01-17T01:22:52.519Z,62.40
2023-01-17T01:28:25.201Z,62.40
2023-01-17T01:36:09.680Z,63.30
2023-01-17T01:38:39.624Z,62.40
2023-01-17T01:41:08.850Z,62.60
2023-01-17T01:43:48.546Z,62.30
2023-01-17T01:49:55.916Z,62.30
2023-01-17T01:52:30.231Z,62.90
2023-01-17T01:55:03.685Z,62.30
2023-01-17T01:57:36.291Z,62.70
2023-01-17T02:00:08.827Z,62.80
2023-01-17T02:02:40.600Z,63.10
2023-01-17T02:05:10.944Z,63.20
2023-01-17T02:07:44.591Z,63.30
2023-01-17T02:10:14.217Z,63.60
2023-01-17T02:13:07.984Z,63.70
2023-01-17T02:15:46.667Z,64.00
2023-01-17T02:18:22.280Z,64.20
2023-01-17T02:21:12.786Z,90.60
2023-01-17T02:24:07.881Z,64.40
2023-01-17T02:26:52.150Z,64.50
2023-01-17T02:30:03.834Z,64.60
2023-01-17T02:32:44.896Z,64.60
2023-01-17T03:06:36.542Z,65.60
2023-01-17T03:09:05.802Z,65.30
2023-01-17T03:11:56.902Z,65.50
2023-01-17T03:16:54.784Z,65.60
2023-01-17T03:19:26.290Z,66.30
2023-01-17T03:21:56.150Z,66.20
2023-01-17T03:39:17.132Z,65.80
2023-01-17T03:51:43.782Z,66.40
2023-01-17T03:56:44.475Z,66.10
2023-01-17T04:14:05.318Z,91.30
2023-01-17T04:27:09.545Z,65.90
2023-01-17T04:30:01.405Z,66.00
2023-01-17T04:37:55.774Z,65.80
2023-01-17T04:45:25.577Z,65.60
2023-01-17T04:53:17.824Z,65.50
2023-01-17T04:55:52.209Z,66.20
2023-01-17T05:00:51.238Z,65.80
2023-01-17T05:06:07.480Z,66.40
2023-01-17T05:12:29.216Z,65.40
2023-01-17T05:17:27.503Z,65.40
2023-01-17T05:24:32.367Z,65.50
2023-01-17T05:34:30.604Z,65.80
2023-01-17T05:51:58.003Z,67.00
2023-01-17T05:56:57.482Z,67.20
2023-01-17T06:07:04.860Z,67.30
2023-01-17T06:24:30.469Z,68.10
2023-01-17T06:41:51.554Z,68.00
2023-01-17T06:59:14.833Z,68.00
2023-01-17T07:16:37.273Z,69.70
2023-01-17T07:21:36.617Z,69.40
2023-01-17T07:24:11.300Z,69.10
2023-01-17T07:31:40.672Z,69.50
2023-01-17T07:44:11.452Z,69.70
2023-01-17T07:46:41.388Z,69.50
2023-01-17T08:01:37.953Z,69.90
2023-01-17T08:04:09.419Z,69.50
2023-01-17T08:06:40.208Z,69.60
2023-01-17T08:21:32.298Z,69.70
2023-01-17T08:29:06.246Z,69.10
2023-01-17T08:31:36.719Z,68.90
2023-01-17T08:36:35.006Z,68.60
2023-01-17T08:49:02.861Z,68.80
2023-01-17T08:54:02.500Z,68.20
2023-01-17T09:11:24.614Z,67.20
2023-01-17T09:26:22.822Z,65.60
2023-01-17T09:28:52.593Z,65.10
2023-01-17T09:31:22.564Z,64.30
2023-01-17T09:33:51.862Z,64.10
2023-01-17T09:38:58.944Z,63.60
2023-01-17T09:41:37.213Z,63.50
2023-01-17T09:44:24.552Z,63.20
2023-01-17T09:46:55.374Z,62.70
2023-01-17T09:49:39.011Z,62.90
2023-01-17T09:52:09.350Z,63.80
2023-01-17T09:54:41.512Z,64.30
2023-01-17T09:57:25.794Z,64.80
2023-01-17T10:00:04.291Z,65.00
2023-01-17T10:02:52.517Z,86.40
2023-01-17T10:05:33.322Z,63.50
2023-01-17T10:08:16.843Z,62.30
2023-01-17T10:10:55.979Z,62.00
2023-01-17T10:13:40.109Z,61.50
2023-01-17T10:16:19.763Z,61.00
2023-01-17T10:19:16.996Z,85.70
2023-01-17T10:22:02.137Z,60.40
2023-01-17T10:25:04.259Z,60.20
2023-01-17T10:27:35.683Z,59.80
2023-01-17T10:30:12.934Z,58.60
2023-01-17T10:32:47.278Z,57.40
2023-01-17T10:35:24.931Z,57.00
2023-01-17T10:37:57.105Z,57.30
2023-01-17T10:40:32.528Z,58.20
2023-01-17T10:43:05.937Z,56.80
2023-01-17T10:45:41.385Z,56.50
2023-01-17T10:48:17.074Z,56.90
2023-01-17T10:50:57.279Z,57.20
2023-01-17T10:53:38.675Z,57.50
2023-01-17T11:01:15.057Z,56.60
2023-01-17T11:03:49.505Z,55.50
2023-01-17T11:06:20.237Z,55.00
2023-01-17T11:08:56.488Z,54.80
2023-01-17T11:11:30.191Z,56.40
2023-01-17T11:14:00.939Z,54.70
2023-01-17T11:16:32.490Z,55.00
2023-01-17T11:19:15.310Z,54.20
2023-01-17T11:21:52.192Z,53.90
2023-01-17T11:24:27.414Z,52.90
2023-01-17T11:29:36.798Z,53.40
2023-01-17T11:32:31.152Z,53.40
2023-01-17T11:35:18.250Z,52.60
2023-01-17T11:37:54.254Z,51.40
2023-01-17T11:40:26.818Z,52.30
2023-01-17T11:43:21.103Z,51.00
2023-01-17T11:46:03.431Z,50.90
2023-01-17T11:48:37.472Z,74.10
2023-01-17T11:51:20.839Z,52.10
2023-01-17T11:56:30.597Z,52.10
2023-01-17T11:59:27.834Z,52.00
2023-01-17T12:02:20.385Z,51.40
2023-01-17T12:04:53.829Z,51.80
2023-01-17T12:07:33.157Z,51.20
2023-01-17T12:10:09.636Z,51.00
2023-01-17T12:13:06.669Z,51.10
2023-01-17T12:15:49.547Z,50.90
2023-01-17T12:18:32.205Z,51.20
2023-01-17T12:21:14.076Z,51.60
2023-01-17T12:24:08.557Z,51.80
2023-01-17T12:26:41.423Z,52.40
2023-01-17T12:29:45.362Z,52.30
2023-01-17T12:32:32.567Z,51.80
2023-01-17T12:35:07.527Z,51.30
2023-01-17T12:37:39.191Z,51.70
2023-01-17T12:40:24.061Z,51.60
2023-01-17T12:42:57.562Z,51.50
2023-01-17T12:45:32.049Z,51.20
2023-01-17T12:48:05.158Z,51.10
2023-01-17T12:50:39.349Z,51.40
2023-01-17T12:53:19.706Z,51.00
2023-01-17T12:55:55.582Z,50.90
2023-01-17T12:58:26.998Z,50.60
2023-01-17T13:01:03.861Z,50.70
2023-01-17T13:03:43.589Z,50.40
2023-01-17T13:06:20.925Z,51.10
2023-01-17T13:08:54.761Z,51.10
2023-01-17T13:11:30.159Z,51.20
2023-01-17T13:16:34.738Z,51.20
2023-01-17T13:19:12.556Z,51.00
2023-01-17T13:21:42.568Z,50.40
2023-01-17T13:24:23.205Z,51.00
2023-01-17T13:27:19.826Z,51.30
2023-01-17T13:30:05.026Z,51.60
2023-01-17T13:32:50.207Z,51.60
2023-01-17T13:35:23.779Z,51.30
2023-01-17T13:38:35.641Z,50.80
2023-01-17T13:41:13.971Z,50.40
2023-01-17T13:44:06.129Z,50.50
2023-01-17T13:46:57.178Z,50.50
2023-01-17T13:49:35.427Z,50.20
2023-01-17T13:52:09.643Z,51.70
2023-01-17T13:54:45.956Z,50.10
2023-01-17T13:57:40.184Z,50.20
2023-01-17T14:00:59.358Z,50.80
2023-01-17T14:04:06.732Z,50.90
2023-01-17T14:06:41.605Z,51.00
2023-01-17T14:09:18.174Z,51.10
2023-01-17T14:12:07.923Z,51.20
2023-01-17T14:14:44.167Z,51.30
2023-01-17T14:17:52.734Z,77.60
2023-01-17T14:20:53.280Z,51.30
2023-01-17T14:23:48.557Z,51.60
2023-01-17T14:26:32.596Z,51.70
2023-01-17T14:31:42.224Z,52.10
2023-01-17T14:34:14.948Z,52.50
2023-01-17T14:36:44.478Z,52.70
2023-01-17T14:39:22.125Z,52.80
2023-01-17T14:46:50.160Z,53.20
2023-01-17T14:49:24.260Z,53.30
2023-01-17T14:52:04.829Z,53.50
2023-01-17T14:57:27.410Z,53.40
2023-01-17T15:00:14.529Z,53.40
2023-01-17T15:02:46.273Z,53.40
2023-01-17T15:05:16.376Z,53.50
2023-01-17T15:07:48.783Z,53.40
2023-01-17T15:10:19.819Z,53.50
2023-01-17T15:15:32.140Z,53.50
2023-01-17T15:18:18.055Z,53.50
2023-01-17T15:20:52.329Z,54.50
2023-01-17T15:23:23.513Z,53.70
2023-01-17T15:25:54.037Z,53.70
2023-01-17T15:31:09.733Z,53.70
2023-01-17T15:33:39.913Z,53.80
2023-01-17T15:36:12.752Z,80.60
2023-01-17T15:38:51.183Z,53.90
2023-01-17T15:41:24.706Z,54.00
2023-01-17T15:46:31.538Z,56.40
2023-01-17T15:49:17.869Z,54.10
2023-01-17T15:51:53.015Z,54.20
2023-01-17T15:54:41.379Z,54.30
2023-01-17T15:57:26.596Z,54.40
2023-01-17T15:59:58.458Z,54.40
2023-01-17T16:02:42.912Z,54.60
2023-01-17T16:05:38.727Z,54.80
2023-01-17T16:08:38.788Z,54.80
2023-01-17T16:11:12.472Z,54.90
2023-01-17T16:16:25.281Z,55.10
2023-01-17T16:19:01.201Z,55.20
2023-01-17T16:21:31.125Z,55.40
2023-01-17T16:24:00.640Z,55.50
2023-01-17T16:26:30.341Z,55.70
2023-01-17T16:33:59.832Z,56.60
2023-01-17T16:38:57.618Z,58.70
2023-01-17T16:44:03.388Z,56.70
2023-01-17T16:56:31.478Z,59.20
2023-01-17T16:59:04.667Z,57.00
2023-01-17T17:01:37.260Z,57.90
2023-01-17T17:14:08.726Z,57.40
2023-01-17T17:29:19.666Z,57.60
2023-01-17T17:31:57.085Z,57.60
2023-01-17T17:36:57.807Z,58.30
2023-01-17T17:44:25.447Z,57.40
2023-01-17T17:49:25.442Z,57.30
2023-01-17T17:57:01.973Z,58.30
2023-01-17T17:59:34.238Z,58.00
2023-01-17T18:09:36.331Z,59.00
2023-01-17T18:21:06.434Z,62.10
2023-01-17T18:26:15.913Z,63.30
2023-01-17T18:29:03.661Z,63.10
2023-01-17T18:31:39.099Z,63.50
2023-01-17T18:34:31.612Z,63.90
2023-01-17T18:37:12.286Z,64.30
2023-01-17T18:47:27.816Z,65.70
2023-01-17T18:49:59.294Z,66.10
2023-01-17T18:52:33.104Z,66.10
2023-01-17T18:55:28.369Z,67.20
2023-01-17T19:03:09.927Z,67.40
2023-01-17T19:18:07.346Z,68.90
2023-01-17T19:25:43.112Z,69.20
2023-01-17T19:30:45.676Z,70.10
2023-01-17T19:33:16.958Z,68.90
2023-01-17T19:44:16.236Z,69.60
2023-01-17T19:49:25.088Z,69.80
2023-01-17T19:57:02.116Z,69.90
2023-01-17T20:04:34.670Z,69.90
2023-01-17T20:07:09.758Z,69.50
2023-01-17T20:09:41.032Z,69.50
2023-01-17T20:19:37.656Z,69.50
2023-01-17T20:27:08.711Z,70.70
2023-01-17T20:34:44.677Z,70.40
2023-01-17T20:45:30.143Z,70.20
2023-01-17T20:48:02.111Z,92.90
2023-01-17T20:50:39.877Z,70.30
2023-01-17T21:05:45.281Z,71.90
2023-01-17T21:08:23.779Z,71.90
2023-01-17T21:10:55.507Z,70.50
2023-01-17T21:14:36.986Z,70.50
2023-01-17T21:22:17.087Z,70.10
2023-01-17T21:27:27.590Z,70.90
2023-01-17T21:35:01.294Z,70.10
2023-01-17T21:37:49.903Z,69.70
2023-01-17T21:40:20.637Z,70.70
2023-01-17T21:45:19.915Z,70.70
2023-01-17T21:47:50.316Z,70.20
2023-01-17T21:53:06.475Z,69.80
2023-01-17T22:01:12.195Z,70.00
2023-01-17T22:08:46.777Z,69.10
2023-01-17T22:11:21.098Z,68.70
2023-01-17T22:13:53.082Z,68.50
2023-01-17T22:16:26.658Z,68.60
2023-01-17T22:21:26.160Z,68.50
2023-01-17T22:23:58.669Z,68.70
2023-01-17T22:26:31.687Z,68.40
2023-01-17T22:29:03.713Z,68.50
2023-01-17T22:31:33.001Z,69.40
2023-01-17T22:34:02.865Z,68.80
2023-01-17T22:36:34.442Z,69.10
2023-01-17T22:39:06.315Z,69.10
2023-01-17T22:46:37.271Z,69.00
2023-01-17T22:49:08.460Z,68.90
2023-01-17T22:54:07.942Z,69.10
2023-01-17T23:01:41.458Z,69.00
2023-01-17T23:04:13.464Z,68.90
2023-01-17T23:06:42.525Z,68.90
2023-01-17T23:09:14.224Z,68.80
2023-01-17T23:11:44.725Z,68.70
2023-01-17T23:14:16.192Z,69.00
2023-01-17T23:17:04.651Z,68.60
2023-01-17T23:19:36.947Z,71.20
2023-01-17T23:22:23.399Z,68.60
2023-01-17T23:24:59.638Z,68.70
2023-01-17T23:27:46.736Z,68.80
2023-01-17T23:30:16.671Z,68.80
2023-01-17T23:32:46.631Z,68.90
2023-01-17T23:40:37.717Z,68.80
2023-01-17T23:43:26.765Z,69.20
2023-01-17T23:45:59.352Z,69.30
2023-01-17T23:49:38.071Z,69.80
2023-01-17T23:57:33.326Z,70.10
